Time;durP1;ratioP1;P1;durP2;ratioP2;P2;SDS_P1;SDS_P2;PMS_P1;PMS_P2;Temp;Humidity;BMP_temperature;BMP_pressure;BME280_temperature;BME280_humidity;BME280_pressure;Samples;Min_cycle;Max_cycle;Signal;HPM_P1;HPM_P2
2021/09/19 00:01:51;;;;;;;7.18;5.80;;;11.90;98.80;;;;;;5013264;28;20064;-80
2021/09/19 00:04:16;;;;;;;7.75;5.88;;;11.90;99.90;;;;;;4991984;28;20116;-80
2021/09/19 00:06:42;;;;;;;6.57;5.47;;;11.90;98.40;;;;;;4997945;28;20033;-79
2021/09/19 00:09:07;;;;;;;6.03;5.43;;;11.90;98.50;;;;;;5016277;28;20059;-80
2021/09/19 00:11:33;;;;;;;8.13;5.63;;;11.90;99.30;;;;;;5015803;28;20037;-80
2021/09/19 00:13:58;;;;;;;10.20;6.65;;;11.90;99.20;;;;;;5013363;28;20374;-80
2021/09/19 00:16:24;;;;;;;9.70;6.63;;;11.90;98.00;;;;;;5015994;28;20041;-80
2021/09/19 00:18:49;;;;;;;6.70;6.00;;;11.80;97.70;;;;;;5011903;28;20037;-80
2021/09/19 00:21:15;;;;;;;12.25;5.80;;;11.80;98.40;;;;;;5008462;28;20030;-80
2021/09/19 00:23:40;;;;;;;6.93;6.20;;;11.80;97.80;;;;;;4999046;28;20061;-80
2021/09/19 00:26:06;;;;;;;7.18;6.22;;;11.80;98.20;;;;;;5011982;28;20065;-80
2021/09/19 00:28:31;;;;;;;7.30;5.95;;;11.80;97.60;;;;;;5031078;28;20083;-80
2021/09/19 00:30:57;;;;;;;6.30;5.65;;;11.80;97.90;;;;;;5014610;28;20036;-80
2021/09/19 00:33:22;;;;;;;7.80;5.50;;;11.70;98.70;;;;;;5030717;28;20048;-80
2021/09/19 00:35:48;;;;;;;6.00;5.00;;;11.60;98.30;;;;;;5031598;28;20041;-80
2021/09/19 00:38:13;;;;;;;7.03;5.38;;;11.50;98.90;;;;;;5015759;28;20031;-80
2021/09/19 00:40:39;;;;;;;6.10;5.50;;;11.60;99.30;;;;;;5030467;28;20060;-80
2021/09/19 00:43:05;;;;;;;5.47;4.85;;;11.40;98.70;;;;;;5011984;28;20489;-80
2021/09/19 00:45:30;;;;;;;5.70;5.13;;;11.50;98.00;;;;;;5031034;28;20446;-80
2021/09/19 00:47:56;;;;;;;6.93;5.80;;;11.40;98.30;;;;;;5030660;28;20041;-79
2021/09/19 00:50:23;;;;;;;6.78;5.70;;;11.50;98.20;;;;;;5011731;28;20412;-80
2021/09/19 00:52:49;;;;;;;8.02;5.13;;;11.40;98.60;;;;;;5012163;28;20057;-81
2021/09/19 00:55:15;;;;;;;8.60;6.07;;;11.50;99.90;;;;;;4996849;28;20493;-80
2021/09/19 00:57:42;;;;;;;6.40;5.80;;;11.50;99.90;;;;;;4994667;28;20096;-80
2021/09/19 01:00:09;;;;;;;7.53;5.97;;;11.50;99.90;;;;;;5010735;28;20032;-80
2021/09/19 01:02:34;;;;;;;6.13;5.53;;;11.40;99.90;;;;;;5014326;28;20025;-80
2021/09/19 01:05:00;;;;;;;6.95;4.68;;;11.50;99.30;;;;;;5014128;28;20036;-80
2021/09/19 01:07:26;;;;;;;8.32;6.18;;;11.70;97.70;;;;;;5032143;28;20033;-80
2021/09/19 01:09:52;;;;;;;6.75;5.60;;;11.60;97.60;;;;;;5032007;28;20091;-80
2021/09/19 01:12:18;;;;;;;6.72;5.22;;;11.60;99.00;;;;;;5017520;28;20408;-79
2021/09/19 01:14:43;;;;;;;7.43;6.22;;;11.60;97.80;;;;;;5016407;28;20028;-79
2021/09/19 01:17:09;;;;;;;7.97;6.30;;;11.40;98.40;;;;;;5017085;28;20021;-81
2021/09/19 01:19:35;;;;;;;11.07;7.15;;;11.40;99.70;;;;;;5018651;28;20048;-80
2021/09/19 01:22:01;;;;;;;6.93;6.22;;;11.30;97.90;;;;;;5016496;28;20037;-80
2021/09/19 01:24:28;;;;;;;8.90;6.68;;;11.20;99.40;;;;;;5037105;28;20025;-79
2021/09/19 01:26:54;;;;;;;8.75;7.35;;;11.20;99.40;;;;;;5033263;28;20017;-78
2021/09/19 01:29:20;;;;;;;9.63;8.63;;;11.10;99.90;;;;;;5018473;28;20061;-79
2021/09/19 01:31:46;;;;;;;9.55;8.43;;;11.20;99.90;;;;;;4998726;28;20049;-80
2021/09/19 01:34:11;;;;;;;10.68;8.45;;;11.20;99.70;;;;;;5017155;28;20033;-80
2021/09/19 01:36:37;;;;;;;8.82;7.95;;;11.10;99.90;;;;;;5036450;28;20029;-79
2021/09/19 01:39:05;;;;;;;10.43;7.55;;;11.00;99.90;;;;;;5034215;28;20040;-79
2021/09/19 01:41:31;;;;;;;9.10;7.55;;;11.00;99.90;;;;;;5019755;28;20033;-80
2021/09/19 01:43:56;;;;;;;9.18;7.13;;;11.10;98.90;;;;;;5020582;28;20028;-79
2021/09/19 01:46:22;;;;;;;11.55;8.00;;;10.90;99.90;;;;;;5023442;28;20583;-80
2021/09/19 01:48:48;;;;;;;9.35;7.97;;;10.90;99.90;;;;;;5003076;28;20033;-80
2021/09/19 01:51:13;;;;;;;8.52;6.82;;;11.00;99.90;;;;;;5020197;28;20357;-79
2021/09/19 01:53:39;;;;;;;9.43;7.47;;;10.80;99.90;;;;;;5019680;28;20044;-80
2021/09/19 01:56:05;;;;;;;8.70;7.45;;;10.90;99.60;;;;;;5018813;28;20088;-80
2021/09/19 01:58:30;;;;;;;7.78;6.70;;;11.00;99.90;;;;;;5015751;28;20206;-79
2021/09/19 02:00:59;;;;;;;15.43;7.20;;;10.90;99.10;;;;;;5023177;28;20488;-80
2021/09/19 02:03:25;;;;;;;7.75;7.03;;;10.90;99.90;;;;;;5022659;28;20045;-80
2021/09/19 02:05:50;;;;;;;7.97;6.68;;;10.90;99.90;;;;;;5001926;28;20129;-80
2021/09/19 02:08:16;;;;;;;8.00;6.97;;;10.90;99.90;;;;;;5033390;28;20093;-80
2021/09/19 02:10:42;;;;;;;7.57;6.03;;;11.00;99.90;;;;;;5019059;28;20120;-79
2021/09/19 02:13:07;;;;;;;7.97;6.78;;;10.90;99.90;;;;;;5018756;28;20477;-80
2021/09/19 02:15:33;;;;;;;9.10;6.68;;;10.90;99.90;;;;;;5039212;28;20036;-79
2021/09/19 02:17:58;;;;;;;12.57;7.88;;;10.80;99.90;;;;;;4999301;28;20091;-80
2021/09/19 02:20:24;;;;;;;8.38;7.03;;;10.90;99.90;;;;;;5022846;28;20076;-79
2021/09/19 02:22:49;;;;;;;8.10;6.20;;;10.80;99.90;;;;;;5020559;28;20032;-79
2021/09/19 02:25:15;;;;;;;7.18;6.28;;;10.80;99.90;;;;;;5018594;28;20365;-80
2021/09/19 02:27:40;;;;;;;12.60;6.78;;;10.80;99.90;;;;;;5032091;28;20029;-79
2021/09/19 02:30:08;;;;;;;9.77;6.20;;;10.80;99.90;;;;;;5014256;28;20696;-80
2021/09/19 02:32:33;;;;;;;7.40;6.28;;;10.80;99.90;;;;;;5032905;28;20404;-80
2021/09/19 02:34:59;;;;;;;6.97;5.97;;;10.70;99.90;;;;;;5014573;28;20034;-80
2021/09/19 02:37:25;;;;;;;7.20;6.50;;;10.70;99.90;;;;;;5014107;28;20314;-81
2021/09/19 02:39:51;;;;;;;9.32;6.60;;;10.70;99.20;;;;;;5015855;28;20038;-84
2021/09/19 02:42:16;;;;;;;6.10;5.47;;;10.60;99.60;;;;;;5014563;28;20366;-85
2021/09/19 02:44:42;;;;;;;11.95;6.78;;;10.60;99.50;;;;;;5032938;28;20018;-84
2021/09/19 02:47:07;;;;;;;6.38;5.72;;;10.70;99.90;;;;;;5016568;28;20022;-85
2021/09/19 02:49:33;;;;;;;9.18;5.85;;;10.70;99.90;;;;;;5033877;28;20040;-84
2021/09/19 02:51:58;;;;;;;10.23;6.22;;;10.80;99.90;;;;;;5017198;28;20081;-84
2021/09/19 02:54:24;;;;;;;6.90;6.10;;;10.80;99.90;;;;;;5034158;28;20037;-85
2021/09/19 02:56:50;;;;;;;8.50;6.35;;;10.80;99.90;;;;;;5032382;28;20033;-83
2021/09/19 02:59:15;;;;;;;7.15;6.45;;;10.80;99.90;;;;;;5012645;28;20045;-84
2021/09/19 03:01:41;;;;;;;6.93;6.28;;;10.80;99.90;;;;;;5018638;28;20134;-85
2021/09/19 03:04:06;;;;;;;7.63;6.43;;;10.80;99.90;;;;;;5018551;28;20063;-85
2021/09/19 03:06:32;;;;;;;7.80;7.00;;;10.80;99.90;;;;;;5015070;28;20408;-85
2021/09/19 03:08:58;;;;;;;8.20;7.28;;;10.90;99.90;;;;;;5016144;28;20117;-83
2021/09/19 03:11:23;;;;;;;7.85;6.18;;;10.80;99.90;;;;;;5030614;28;20072;-84
2021/09/19 03:13:49;;;;;;;7.22;6.50;;;10.80;99.90;;;;;;5016526;28;20540;-85
2021/09/19 03:16:14;;;;;;;7.78;6.80;;;10.70;99.60;;;;;;5015792;28;20115;-84
2021/09/19 03:18:40;;;;;;;9.82;7.00;;;10.70;99.90;;;;;;5003455;28;20032;-84
2021/09/19 03:21:05;;;;;;;8.02;7.22;;;10.70;99.90;;;;;;5019729;28;20029;-85
2021/09/19 03:23:31;;;;;;;7.10;6.25;;;10.80;99.90;;;;;;5021050;28;20060;-84
2021/09/19 03:25:57;;;;;;;8.07;7.28;;;10.80;99.90;;;;;;5001793;28;20036;-84
2021/09/19 03:28:22;;;;;;;10.38;6.53;;;10.90;99.90;;;;;;5017621;28;20120;-84
2021/09/19 03:30:48;;;;;;;11.20;6.63;;;10.90;99.90;;;;;;5018297;28;20369;-84
2021/09/19 03:33:13;;;;;;;7.70;6.30;;;11.00;99.90;;;;;;5018669;28;20508;-84
2021/09/19 03:35:39;;;;;;;6.88;5.85;;;10.90;99.90;;;;;;5017745;28;20481;-84
2021/09/19 03:38:04;;;;;;;7.60;6.20;;;11.00;99.90;;;;;;5035746;28;20045;-84
2021/09/19 03:40:30;;;;;;;7.85;6.22;;;11.00;99.90;;;;;;5020175;28;20603;-84
2021/09/19 03:42:55;;;;;;;7.90;6.05;;;11.00;99.90;;;;;;5004304;28;20440;-84
2021/09/19 03:45:24;;;;;;;7.00;6.30;;;11.00;99.10;;;;;;5034096;28;20029;-84
2021/09/19 03:47:51;;;;;;;9.23;6.57;;;11.00;99.50;;;;;;5015783;28;20470;-84
2021/09/19 03:50:16;;;;;;;9.93;5.65;;;10.90;99.80;;;;;;5016523;28;20022;-84
2021/09/19 03:52:42;;;;;;;11.57;6.25;;;10.90;99.70;;;;;;5032270;28;20032;-84
2021/09/19 03:55:08;;;;;;;7.15;6.05;;;10.80;99.90;;;;;;4997799;28;20041;-83
2021/09/19 03:57:33;;;;;;;7.97;6.57;;;10.80;99.00;;;;;;5016334;28;20049;-83
2021/09/19 03:59:59;;;;;;;7.63;6.55;;;10.70;99.90;;;;;;5011817;28;20060;-84
2021/09/19 04:02:24;;;;;;;7.97;6.32;;;10.80;99.90;;;;;;5032825;28;20041;-85
2021/09/19 04:04:50;;;;;;;7.88;6.72;;;10.80;99.90;;;;;;4996131;28;20524;-85
2021/09/19 04:07:15;;;;;;;10.77;7.57;;;10.70;99.80;;;;;;5015104;28;20113;-85
2021/09/19 04:09:41;;;;;;;9.68;7.07;;;10.70;99.90;;;;;;5000951;28;20167;-84
2021/09/19 04:12:06;;;;;;;12.30;7.40;;;10.70;99.90;;;;;;5030997;28;20067;-85
2021/09/19 04:14:32;;;;;;;12.65;8.02;;;10.70;99.90;;;;;;5016493;28;20085;-85
2021/09/19 04:16:57;;;;;;;11.38;8.40;;;10.60;99.90;;;;;;4999484;28;20053;-85
2021/09/19 04:19:23;;;;;;;9.75;8.05;;;10.60;99.90;;;;;;5033840;28;20105;-84
2021/09/19 04:21:48;;;;;;;8.95;7.13;;;10.60;99.90;;;;;;4997354;28;20033;-84
2021/09/19 04:24:14;;;;;;;9.88;6.97;;;10.50;99.70;;;;;;5002039;28;20144;-83
2021/09/19 04:26:40;;;;;;;8.35;6.40;;;10.40;99.90;;;;;;5028281;28;20055;-84
2021/09/19 04:29:05;;;;;;;12.18;7.07;;;10.50;99.90;;;;;;5014482;28;20040;-83
2021/09/19 04:31:31;;;;;;;8.10;6.38;;;10.40;99.90;;;;;;5017805;28;20045;-84
2021/09/19 04:33:58;;;;;;;8.00;6.53;;;10.40;99.90;;;;;;5016366;28;20044;-84
2021/09/19 04:36:23;;;;;;;9.10;6.40;;;10.40;99.90;;;;;;5020667;28;20021;-84
2021/09/19 04:38:49;;;;;;;11.98;6.18;;;10.40;99.90;;;;;;5000017;28;20030;-84
2021/09/19 04:41:14;;;;;;;8.50;4.95;;;10.40;99.90;;;;;;5015652;28;20032;-84
2021/09/19 04:43:40;;;;;;;6.88;6.15;;;10.40;99.30;;;;;;5027254;28;20120;-85
2021/09/19 04:46:05;;;;;;;6.50;5.80;;;10.40;99.90;;;;;;5019912;28;20533;-84
2021/09/19 04:48:31;;;;;;;7.28;5.60;;;10.30;99.90;;;;;;5037365;28;20519;-85
2021/09/19 04:50:56;;;;;;;6.40;5.70;;;10.20;99.90;;;;;;5017807;28;20064;-84
2021/09/19 04:53:22;;;;;;;6.90;5.60;;;10.20;99.90;;;;;;5005069;28;20064;-85
2021/09/19 04:55:47;;;;;;;6.00;5.22;;;10.20;99.90;;;;;;5000845;28;20042;-85
2021/09/19 04:58:13;;;;;;;7.25;6.50;;;10.20;99.90;;;;;;5034670;28;20026;-85
2021/09/19 05:00:38;;;;;;;6.50;5.78;;;10.10;99.90;;;;;;5019664;28;20029;-85
2021/09/19 05:03:04;;;;;;;16.10;7.40;;;10.10;99.90;;;;;;5018421;28;20048;-85
2021/09/19 05:05:29;;;;;;;6.93;5.43;;;10.00;99.90;;;;;;5021601;28;20032;-83
2021/09/19 05:07:55;;;;;;;8.20;5.80;;;10.00;99.90;;;;;;5017352;28;20033;-85
2021/09/19 05:10:20;;;;;;;7.47;6.18;;;10.00;99.90;;;;;;5020098;28;20499;-84
2021/09/19 05:12:46;;;;;;;7.47;6.43;;;10.00;99.90;;;;;;5020260;28;20037;-85
2021/09/19 05:15:12;;;;;;;7.75;6.15;;;10.00;99.90;;;;;;5006541;28;20117;-85
2021/09/19 05:17:37;;;;;;;12.80;6.25;;;9.90;99.90;;;;;;5019487;28;20104;-85
2021/09/19 05:20:03;;;;;;;7.57;5.40;;;9.90;99.90;;;;;;5018896;28;20018;-85
2021/09/19 05:22:30;;;;;;;8.35;5.93;;;9.90;99.90;;;;;;5026761;28;20392;-85
2021/09/19 05:24:55;;;;;;;10.55;6.18;;;10.00;99.90;;;;;;4995685;28;20486;-84
2021/09/19 05:27:21;;;;;;;8.25;7.28;;;10.00;99.90;;;;;;5013661;28;20025;-85
2021/09/19 05:29:46;;;;;;;7.20;5.50;;;10.00;99.90;;;;;;4997669;28;20037;-85
2021/09/19 05:32:12;;;;;;;6.05;5.28;;;10.10;99.20;;;;;;4996172;28;20026;-84
2021/09/19 05:34:37;;;;;;;6.93;5.95;;;10.10;98.60;;;;;;5030780;28;20018;-85
2021/09/19 05:37:03;;;;;;;9.18;5.15;;;10.00;99.70;;;;;;5013439;28;20032;-90
2021/09/19 05:39:28;;;;;;;5.35;4.85;;;10.00;99.90;;;;;;5029768;28;20042;-85
2021/09/19 05:41:54;;;;;;;6.15;5.32;;;9.90;99.90;;;;;;5014125;28;20037;-84
2021/09/19 05:44:20;;;;;;;6.18;5.57;;;9.90;99.90;;;;;;5014660;28;20029;-85
2021/09/19 05:46:45;;;;;;;12.60;7.10;;;9.90;99.90;;;;;;5013502;28;20440;-83
2021/09/19 05:49:11;;;;;;;7.57;6.25;;;9.90;99.90;;;;;;5014567;28;20041;-84
2021/09/19 05:51:36;;;;;;;7.80;6.63;;;9.90;99.90;;;;;;5031452;28;20658;-84
2021/09/19 05:54:02;;;;;;;9.05;6.65;;;9.90;99.90;;;;;;5013287;28;20041;-86
2021/09/19 05:56:27;;;;;;;9.70;6.82;;;9.90;99.90;;;;;;5034438;28;20108;-85
2021/09/19 05:58:54;;;;;;;9.85;7.05;;;9.90;99.90;;;;;;5018681;28;20091;-86
2021/09/19 06:01:20;;;;;;;8.60;7.05;;;9.90;99.90;;;;;;5003250;28;20034;-86
2021/09/19 06:03:46;;;;;;;11.93;7.25;;;9.90;99.90;;;;;;5002756;28;20064;-85
2021/09/19 06:06:11;;;;;;;11.15;7.10;;;10.00;99.90;;;;;;5019287;28;20025;-86
2021/09/19 06:08:37;;;;;;;9.52;8.13;;;10.10;99.90;;;;;;5035722;28;20091;-86
2021/09/19 06:11:02;;;;;;;10.38;8.13;;;10.10;99.90;;;;;;5018288;28;20109;-85
2021/09/19 06:13:28;;;;;;;10.40;7.40;;;10.20;99.90;;;;;;5020765;28;20034;-86
2021/09/19 06:15:53;;;;;;;11.27;8.18;;;10.20;99.90;;;;;;5017790;28;20497;-87
2021/09/19 06:18:19;;;;;;;12.13;8.07;;;10.40;99.90;;;;;;5020548;28;20473;-86
2021/09/19 06:20:44;;;;;;;9.75;7.03;;;10.50;99.90;;;;;;5018271;28;20033;-86
2021/09/19 06:23:10;;;;;;;13.45;7.70;;;10.50;99.90;;;;;;5037486;28;20632;-86
2021/09/19 06:25:35;;;;;;;10.05;8.35;;;10.60;99.90;;;;;;5019013;28;20036;-86
2021/09/19 06:28:01;;;;;;;10.77;8.73;;;10.70;99.90;;;;;;5017546;28;20030;-86
2021/09/19 06:30:27;;;;;;;16.05;10.15;;;10.80;99.90;;;;;;5016043;28;20549;-86
2021/09/19 06:32:53;;;;;;;11.93;9.25;;;10.90;99.90;;;;;;5019684;28;20052;-86
2021/09/19 06:35:18;;;;;;;11.43;9.13;;;11.00;99.90;;;;;;5035951;28;20045;-83
2021/09/19 06:37:44;;;;;;;14.55;10.45;;;11.00;99.90;;;;;;5017280;28;20056;-85
2021/09/19 06:40:10;;;;;;;16.25;10.82;;;11.10;99.90;;;;;;5014816;28;20543;-84
2021/09/19 06:42:35;;;;;;;17.25;9.43;;;11.20;99.90;;;;;;5034110;28;20033;-83
2021/09/19 06:45:01;;;;;;;11.38;9.63;;;11.30;99.90;;;;;;5018890;28;20032;-84
2021/09/19 06:47:26;;;;;;;10.05;7.93;;;11.50;99.90;;;;;;5009059;28;20089;-84
2021/09/19 06:49:53;;;;;;;15.48;10.13;;;11.50;99.90;;;;;;5010414;28;20029;-84
2021/09/19 06:52:19;;;;;;;10.85;9.50;;;11.70;99.90;;;;;;5018142;28;20031;-84
2021/09/19 06:54:44;;;;;;;19.08;10.55;;;11.70;99.90;;;;;;5018784;28;20477;-84
2021/09/19 06:57:10;;;;;;;14.63;10.32;;;11.90;99.90;;;;;;5021064;28;20044;-84
2021/09/19 06:59:36;;;;;;;15.13;9.95;;;11.90;99.90;;;;;;4309223;28;10001150;-83
2021/09/19 07:02:02;;;;;;;14.20;10.93;;;12.00;99.90;;;;;;4995607;28;20056;-83
2021/09/19 07:04:27;;;;;;;13.77;11.00;;;12.10;99.90;;;;;;4979822;28;20781;-84
2021/09/19 07:06:53;;;;;;;12.80;10.55;;;12.20;99.80;;;;;;4974592;28;20153;-84
2021/09/19 07:09:18;;;;;;;14.73;9.55;;;12.40;99.90;;;;;;4976971;28;20490;-83
2021/09/19 07:11:44;;;;;;;16.35;12.20;;;12.40;99.90;;;;;;4997725;28;20077;-84
2021/09/19 07:14:09;;;;;;;18.98;11.07;;;12.40;99.90;;;;;;4975060;28;20071;-83
2021/09/19 07:16:36;;;;;;;17.20;11.30;;;12.50;99.90;;;;;;4994074;28;20084;-84
2021/09/19 07:19:01;;;;;;;16.13;11.95;;;12.60;99.90;;;;;;4983145;28;20505;-84
2021/09/19 07:21:27;;;;;;;14.45;9.73;;;12.70;99.90;;;;;;4996139;28;20037;-83
2021/09/19 07:23:52;;;;;;;13.30;10.73;;;12.80;99.90;;;;;;5003613;28;20132;-84
2021/09/19 07:26:18;;;;;;;13.07;9.82;;;12.90;99.90;;;;;;4984675;28;20042;-84
2021/09/19 07:28:44;;;;;;;14.20;10.73;;;13.00;99.90;;;;;;4970645;28;20487;-84
2021/09/19 07:31:09;;;;;;;15.18;11.43;;;13.20;99.90;;;;;;4982145;28;20030;-84
2021/09/19 07:33:35;;;;;;;14.00;10.55;;;13.30;99.90;;;;;;5030709;28;20120;-83
2021/09/19 07:36:01;;;;;;;14.85;10.00;;;13.40;99.90;;;;;;5039839;28;20037;-84
2021/09/19 07:38:26;;;;;;;9.15;7.43;;;13.40;99.90;;;;;;5025003;28;20043;-83
2021/09/19 07:40:52;;;;;;;8.70;7.63;;;13.60;99.50;;;;;;5023015;28;20037;-84
2021/09/19 07:43:21;;;;;;;10.93;8.85;;;13.70;99.80;;;;;;5041913;28;21640;-86
2021/09/19 07:45:47;;;;;;;11.93;9.88;;;13.80;99.90;;;;;;5027349;28;20037;-84
2021/09/19 07:48:13;;;;;;;10.48;8.63;;;14.00;99.90;;;;;;5028701;28;20035;-84
2021/09/19 07:50:39;;;;;;;11.10;8.32;;;14.10;99.90;;;;;;5042592;28;20442;-85
2021/09/19 07:53:05;;;;;;;7.88;6.38;;;14.30;99.90;;;;;;5029112;28;20041;-83
2021/09/19 07:55:32;;;;;;;7.95;6.80;;;14.40;99.90;;;;;;5014223;28;20051;-85
2021/09/19 07:57:58;;;;;;;6.03;5.18;;;14.50;99.90;;;;;;5027225;28;20078;-86
2021/09/19 08:00:23;;;;;;;7.25;5.80;;;14.70;99.90;;;;;;5049132;28;20150;-85
2021/09/19 08:02:49;;;;;;;8.00;5.15;;;14.90;99.90;;;;;;5000554;28;20047;-86
2021/09/19 08:05:15;;;;;;;6.53;5.00;;;15.10;99.90;;;;;;5018111;28;20378;-86
2021/09/19 08:07:41;;;;;;;5.18;4.57;;;15.20;99.60;;;;;;5016014;28;20032;-86
2021/09/19 08:10:07;;;;;;;5.72;4.72;;;15.40;99.90;;;;;;5022156;28;20044;-86
2021/09/19 08:12:33;;;;;;;6.35;5.28;;;15.60;99.90;;;;;;5008483;28;20048;-87
2021/09/19 08:14:58;;;;;;;5.88;5.03;;;15.80;99.90;;;;;;5010455;28;20485;-86
2021/09/19 08:17:24;;;;;;;5.15;4.65;;;16.00;99.90;;;;;;5044585;28;20029;-86
2021/09/19 08:19:50;;;;;;;5.38;4.50;;;16.20;99.90;;;;;;5013787;28;20572;-85
2021/09/19 08:22:15;;;;;;;6.95;4.50;;;16.30;99.90;;;;;;5043163;28;20500;-86
2021/09/19 08:24:41;;;;;;;6.80;4.40;;;16.50;99.90;;;;;;5015690;28;20047;-86
2021/09/19 08:27:08;;;;;;;5.85;4.78;;;16.60;99.90;;;;;;5037757;28;20950;-86
2021/09/19 08:29:34;;;;;;;6.05;4.10;;;16.90;99.90;;;;;;5022616;28;20029;-87
2021/09/19 08:32:00;;;;;;;4.53;3.92;;;17.10;99.90;;;;;;5026452;28;20039;-87
2021/09/19 08:34:26;;;;;;;6.13;4.45;;;17.40;99.90;;;;;;5027111;28;20538;-85
2021/09/19 08:36:52;;;;;;;4.85;3.83;;;17.50;99.90;;;;;;5010137;28;20048;-87
2021/09/19 08:39:17;;;;;;;5.22;3.80;;;17.80;99.90;;;;;;5022672;28;20038;-87
2021/09/19 08:41:43;;;;;;;5.38;3.92;;;17.80;99.90;;;;;;5008067;28;20036;-86
2021/09/19 08:44:09;;;;;;;4.50;4.10;;;17.90;99.90;;;;;;5010503;28;20051;-85
2021/09/19 08:46:37;;;;;;;5.75;3.85;;;18.20;99.90;;;;;;5025500;28;20584;-87
2021/09/19 08:49:02;;;;;;;6.97;3.78;;;18.30;99.90;;;;;;5023870;28;20106;-87
2021/09/19 08:51:28;;;;;;;5.65;3.22;;;18.50;99.90;;;;;;5038532;28;20107;-87
2021/09/19 08:53:53;;;;;;;3.97;3.58;;;18.70;99.90;;;;;;5039053;28;20108;-88
2021/09/19 08:56:23;;;;;;;4.20;3.28;;;18.70;99.50;;;;;;5005527;28;20024;-87
2021/09/19 08:58:49;;;;;;;5.40;4.00;;;18.70;99.90;;;;;;5014391;28;20036;-87
2021/09/19 09:01:14;;;;;;;6.28;3.95;;;19.00;99.90;;;;;;5032382;28;20481;-87
2021/09/19 09:03:40;;;;;;;5.72;3.45;;;19.20;99.90;;;;;;5036716;28;20037;-87
2021/09/19 09:06:07;;;;;;;4.97;3.40;;;19.30;99.90;;;;;;5042970;28;20028;-87
2021/09/19 09:08:33;;;;;;;3.63;3.33;;;19.50;99.90;;;;;;5037822;28;20033;-87
2021/09/19 09:11:05;;;;;;;5.53;3.30;;;19.60;99.90;;;;;;5044443;28;20035;-86
2021/09/19 09:13:33;;;;;;;4.15;3.55;;;19.80;99.90;;;;;;5036913;28;20678;-87
2021/09/19 09:16:17;;;;;;;3.67;3.33;;;19.80;99.50;;;;;;5019481;28;20025;-87
2021/09/19 09:21:48;;;;;;;5.15;3.38;;;20.10;99.30;;;;;;4960186;28;20037;-87
2021/09/19 09:24:15;;;;;;;4.57;3.60;;;20.30;98.80;;;;;;5017812;28;20034;-87
2021/09/19 09:26:42;;;;;;;5.93;3.50;;;20.30;98.70;;;;;;5038973;28;20396;-87
2021/09/19 09:29:14;;;;;;;4.18;3.58;;;20.50;98.70;;;;;;5018051;28;20032;-87
2021/09/19 09:31:42;;;;;;;4.47;3.78;;;20.60;97.70;;;;;;5033725;28;20143;-87
2021/09/19 09:34:15;;;;;;;4.30;3.90;;;20.60;98.50;;;;;;5029189;28;20025;-88
2021/09/19 09:36:57;;;;;;;3.88;3.35;;;20.80;98.60;;;;;;5045625;28;20093;-88
2021/09/19 09:39:25;;;;;;;4.93;3.25;;;21.00;98.10;;;;;;5039864;28;20040;-87
2021/09/19 09:41:52;;;;;;;4.45;3.28;;;21.10;98.30;;;;;;5042471;28;20396;-88
2021/09/19 09:44:33;;;;;;;3.85;3.47;;;21.30;97.80;;;;;;5025921;28;20037;-88
2021/09/19 09:47:00;;;;;;;5.10;3.75;;;21.40;97.60;;;;;;5038530;28;20032;-87
2021/09/19 09:49:35;;;;;;;4.68;3.83;;;21.40;97.70;;;;;;5043369;28;20491;-87
2021/09/19 09:52:05;;;;;;;4.20;3.70;;;21.60;97.40;;;;;;5029502;28;20515;-88
2021/09/19 09:54:42;;;;;;;6.18;4.03;;;21.70;97.30;;;;;;5032973;28;20045;-87
2021/09/19 09:57:08;;;;;;;4.32;3.92;;;21.80;97.00;;;;;;5039584;28;20037;-87
2021/09/19 09:59:34;;;;;;;5.63;4.35;;;22.00;97.20;;;;;;5026824;28;20033;-88
2021/09/19 10:02:02;;;;;;;5.25;4.50;;;22.10;97.10;;;;;;5039589;28;20087;-87
2021/09/19 10:04:32;;;;;;;3.88;3.35;;;22.20;96.20;;;;;;5045568;28;20051;-87
2021/09/19 10:06:57;;;;;;;4.07;3.67;;;22.30;96.60;;;;;;5009899;28;20033;-87
2021/09/19 10:09:23;;;;;;;4.82;4.05;;;22.40;96.40;;;;;;5012091;28;20013;-88
2021/09/19 10:11:48;;;;;;;11.40;4.35;;;22.70;95.20;;;;;;5045456;28;20560;-87
2021/09/19 10:14:14;;;;;;;5.28;4.20;;;22.70;94.40;;;;;;5023332;28;20093;-87
2021/09/19 10:16:40;;;;;;;4.43;3.35;;;22.80;94.60;;;;;;5048524;28;20037;-87
2021/09/19 10:19:06;;;;;;;5.13;4.25;;;22.80;94.50;;;;;;5012607;28;20037;-87
2021/09/19 10:21:34;;;;;;;5.25;4.43;;;22.80;95.60;;;;;;5047306;28;20453;-87
2021/09/19 10:23:59;;;;;;;5.03;4.20;;;23.10;94.30;;;;;;5020162;28;20554;-87
2021/09/19 10:26:25;;;;;;;5.07;4.10;;;23.20;95.00;;;;;;5008717;28;20033;-87
2021/09/19 10:28:54;;;;;;;4.22;3.72;;;23.30;93.80;;;;;;5013236;28;20483;-85
2021/09/19 10:31:24;;;;;;;5.65;4.22;;;23.20;93.90;;;;;;5038527;28;20044;-85
2021/09/19 10:33:55;;;;;;;4.97;4.47;;;23.40;94.20;;;;;;5030642;28;20036;-86
2021/09/19 10:36:45;;;;;;;6.00;3.95;;;23.50;93.30;;;;;;5064796;28;20039;-86
2021/09/19 10:39:21;;;;;;;4.18;3.78;;;23.60;93.30;;;;;;5056351;28;20029;-87
2021/09/19 10:42:16;;;;;;;4.75;4.30;;;23.70;93.40;;;;;;5021011;28;20059;-88
2021/09/19 10:44:44;;;;;;;4.88;4.13;;;23.90;92.60;;;;;;5024618;28;20579;-88
2021/09/19 10:47:25;;;;;;;4.30;3.90;;;24.10;93.00;;;;;;5060667;28;20189;-88
2021/09/19 10:50:22;;;;;;;4.88;4.40;;;24.00;92.60;;;;;;5025458;28;20033;-88
2021/09/19 10:52:57;;;;;;;4.78;3.97;;;24.30;92.40;;;;;;5048782;28;20033;-88
2021/09/19 10:55:29;;;;;;;4.10;3.58;;;24.40;92.20;;;;;;5046032;28;20052;-88
2021/09/19 10:57:59;;;;;;;4.65;4.13;;;24.40;91.10;;;;;;5035613;28;20506;-88
2021/09/19 11:00:28;;;;;;;4.00;3.60;;;24.50;91.20;;;;;;5044813;28;20060;-88
2021/09/19 11:03:16;;;;;;;5.05;4.10;;;24.60;90.30;;;;;;5016274;28;20086;-88
2021/09/19 11:05:44;;;;;;;6.30;4.32;;;24.60;90.50;;;;;;5011490;28;20070;-88
2021/09/19 11:08:10;;;;;;;4.28;3.88;;;24.70;90.20;;;;;;5012450;28;20481;-88
2021/09/19 11:10:45;;;;;;;9.02;3.95;;;24.80;90.10;;;;;;5046398;28;20025;-88
2021/09/19 11:13:31;;;;;;;4.82;4.43;;;24.60;91.20;;;;;;5052839;28;20170;-89
2021/09/19 11:16:06;;;;;;;3.97;3.65;;;24.70;90.50;;;;;;5009262;28;20123;-88
2021/09/19 11:18:52;;;;;;;4.07;3.60;;;24.80;89.40;;;;;;5043853;28;20044;-88
2021/09/19 11:21:21;;;;;;;3.78;3.47;;;24.90;88.30;;;;;;5020005;28;20361;-88
2021/09/19 11:24:06;;;;;;;5.00;3.50;;;24.80;90.00;;;;;;5041182;28;20570;-89
2021/09/19 11:26:48;;;;;;;3.88;3.58;;;24.90;88.00;;;;;;5016953;28;20110;-89
2021/09/19 11:29:15;;;;;;;3.70;3.40;;;24.90;85.40;;;;;;5032869;28;20037;-89
2021/09/19 11:31:42;;;;;;;4.03;3.63;;;25.00;88.40;;;;;;5048286;28;20045;-88
2021/09/19 11:34:15;;;;;;;5.30;4.00;;;25.10;87.90;;;;;;5043913;28;20021;-89
2021/09/19 11:36:44;;;;;;;4.07;3.67;;;25.10;85.40;;;;;;5048496;28;20033;-89
2021/09/19 11:39:10;;;;;;;3.88;3.58;;;25.20;83.90;;;;;;5017703;28;20052;-89
2021/09/19 11:41:36;;;;;;;6.28;3.88;;;25.20;85.90;;;;;;5037154;28;20033;-90
2021/09/19 11:44:01;;;;;;;5.25;4.15;;;25.20;85.30;;;;;;5018602;28;20036;-88
2021/09/19 11:46:27;;;;;;;6.80;3.78;;;25.30;83.20;;;;;;4692687;28;9999771;-89
2021/09/19 11:48:54;;;;;;;4.55;3.70;;;25.40;84.10;;;;;;5001858;28;20072;-89
2021/09/19 11:51:19;;;;;;;3.60;3.30;;;25.40;86.10;;;;;;5013392;28;20037;-90
2021/09/19 11:53:47;;;;;;;4.47;4.07;;;25.40;86.60;;;;;;5004797;28;20051;-89
2021/09/19 11:56:15;;;;;;;4.63;3.53;;;25.60;82.90;;;;;;5011326;28;20040;-88
2021/09/19 11:58:41;;;;;;;3.65;3.35;;;25.60;82.80;;;;;;5047703;28;20036;-89
2021/09/19 12:01:06;;;;;;;4.85;3.10;;;25.60;83.90;;;;;;5032260;28;20435;-89
2021/09/19 12:03:33;;;;;;;4.13;3.30;;;25.70;84.30;;;;;;5015959;28;20049;-89
2021/09/19 12:06:08;;;;;;;4.43;3.03;;;25.70;84.10;;;;;;5032601;28;20547;-88
2021/09/19 12:08:36;;;;;;;3.42;3.13;;;25.80;81.00;;;;;;5006368;28;20060;-88
2021/09/19 12:11:12;;;;;;;4.38;2.70;;;25.80;80.80;;;;;;4998764;28;20047;-89
2021/09/19 12:13:50;;;;;;;3.20;2.90;;;25.80;81.10;;;;;;5014752;28;20400;-90
2021/09/19 12:16:19;;;;;;;3.25;2.10;;;25.80;81.80;;;;;;5006509;28;20100;-89
2021/09/19 12:18:49;;;;;;;2.92;2.15;;;25.80;82.50;;;;;;5013346;28;20036;-90
2021/09/19 12:21:21;;;;;;;2.15;1.95;;;25.80;81.00;;;;;;5027460;28;20107;-89
2021/09/19 12:24:09;;;;;;;3.33;2.15;;;25.90;76.70;;;;;;5048560;28;20515;-89
2021/09/19 12:26:35;;;;;;;1.73;1.63;;;25.80;79.10;;;;;;4991746;28;20092;-90
2021/09/19 12:29:08;;;;;;;1.58;1.48;;;25.80;77.50;;;;;;4994824;28;20036;-90
2021/09/19 12:31:43;;;;;;;2.05;1.40;;;25.80;77.10;;;;;;5030965;28;20269;-91
2021/09/19 12:34:20;;;;;;;1.60;1.50;;;25.80;77.70;;;;;;5028839;28;20055;-89
2021/09/19 12:36:55;;;;;;;1.42;1.10;;;25.90;78.80;;;;;;5012043;28;20037;-89
2021/09/19 12:39:44;;;;;;;1.20;1.10;;;25.80;74.40;;;;;;5053235;28;20104;-90
2021/09/19 12:42:29;;;;;;;1.70;1.40;;;25.70;73.40;;;;;;5049760;28;20036;-91
2021/09/19 12:45:12;;;;;;;2.40;1.10;;;25.60;77.50;;;;;;5004111;28;20033;-89
2021/09/19 12:47:38;;;;;;;1.30;0.98;;;25.50;75.00;;;;;;5028587;28;20038;-92
2021/09/19 12:50:33;;;;;;;;;;;;;;;;;;;;;